sensor_id;sensor_type;location;lat;lon;timestamp;P1;durP1;ratioP1;P2;durP2;ratioP2
7969;SDS011;4030;52.362;9.206;2023-05-31T00:00:25;2.33;;;2.13;;
7969;SDS011;4030;52.362;9.206;2023-05-31T00:02:51;2.45;;;2.20;;
7969;SDS011;4030;52.362;9.206;2023-05-31T00:05:16;2.47;;;2.28;;
7969;SDS011;4030;52.362;9.206;2023-05-31T00:07:42;4.07;;;2.50;;
7969;SDS011;4030;52.362;9.206;2023-05-31T00:10:08;2.83;;;2.28;;
7969;SDS011;4030;52.362;9.206;2023-05-31T00:12:35;2.50;;;2.30;;
7969;SDS011;4030;52.362;9.206;2023-05-31T00:15:01;3.40;;;2.70;;
7969;SDS011;4030;52.362;9.206;2023-05-31T00:17:27;3.10;;;2.35;;
7969;SDS011;4030;52.362;9.206;2023-05-31T00:19:53;2.90;;;2.30;;
7969;SDS011;4030;52.362;9.206;2023-05-31T00:22:19;2.85;;;2.35;;
7969;SDS011;4030;52.362;9.206;2023-05-31T00:24:45;2.60;;;2.40;;
7969;SDS011;4030;52.362;9.206;2023-05-31T00:27:11;2.70;;;2.47;;
7969;SDS011;4030;52.362;9.206;2023-05-31T00:29:37;2.92;;;2.33;;
7969;SDS011;4030;52.362;9.206;2023-05-31T00:32:03;3.25;;;2.70;;
7969;SDS011;4030;52.362;9.206;2023-05-31T00:34:29;2.60;;;2.40;;
7969;SDS011;4030;52.362;9.206;2023-05-31T00:36:55;3.17;;;2.60;;
7969;SDS011;4030;52.362;9.206;2023-05-31T00:39:21;2.72;;;2.33;;
7969;SDS011;4030;52.362;9.206;2023-05-31T00:41:48;2.95;;;2.65;;
7969;SDS011;4030;52.362;9.206;2023-05-31T00:44:14;3.00;;;2.70;;
7969;SDS011;4030;52.362;9.206;2023-05-31T00:46:39;2.60;;;2.30;;
7969;SDS011;4030;52.362;9.206;2023-05-31T00:49:06;3.30;;;2.53;;
7969;SDS011;4030;52.362;9.206;2023-05-31T00:51:32;3.00;;;2.70;;
7969;SDS011;4030;52.362;9.206;2023-05-31T00:54:00;3.17;;;2.60;;
7969;SDS011;4030;52.362;9.206;2023-05-31T00:56:26;4.03;;;2.80;;
7969;SDS011;4030;52.362;9.206;2023-05-31T00:58:53;3.25;;;2.80;;
7969;SDS011;4030;52.362;9.206;2023-05-31T01:01:22;2.95;;;2.63;;
7969;SDS011;4030;52.362;9.206;2023-05-31T01:03:51;3.47;;;2.53;;
7969;SDS011;4030;52.362;9.206;2023-05-31T01:06:21;2.75;;;2.50;;
7969;SDS011;4030;52.362;9.206;2023-05-31T01:08:48;3.47;;;2.30;;
7969;SDS011;4030;52.362;9.206;2023-05-31T01:11:25;3.10;;;2.67;;
7969;SDS011;4030;52.362;9.206;2023-05-31T01:17:41;2.78;;;2.50;;
7969;SDS011;4030;52.362;9.206;2023-05-31T01:20:21;3.10;;;2.80;;
7969;SDS011;4030;52.362;9.206;2023-05-31T01:22:55;3.53;;;2.83;;
7969;SDS011;4030;52.362;9.206;2023-05-31T01:28:33;3.67;;;2.60;;
7969;SDS011;4030;52.362;9.206;2023-05-31T01:31:02;2.50;;;2.30;;
7969;SDS011;4030;52.362;9.206;2023-05-31T01:33:32;3.05;;;2.50;;
7969;SDS011;4030;52.362;9.206;2023-05-31T01:35:59;3.60;;;2.78;;
7969;SDS011;4030;52.362;9.206;2023-05-31T01:38:25;2.88;;;2.50;;
7969;SDS011;4030;52.362;9.206;2023-05-31T01:40:51;4.38;;;2.60;;
7969;SDS011;4030;52.362;9.206;2023-05-31T01:43:20;2.72;;;2.45;;
7969;SDS011;4030;52.362;9.206;2023-05-31T01:45:46;2.80;;;2.50;;
7969;SDS011;4030;52.362;9.206;2023-05-31T01:48:12;3.20;;;2.50;;
7969;SDS011;4030;52.362;9.206;2023-05-31T01:50:38;3.92;;;2.50;;
7969;SDS011;4030;52.362;9.206;2023-05-31T01:53:05;2.90;;;2.28;;
7969;SDS011;4030;52.362;9.206;2023-05-31T01:55:31;2.63;;;2.33;;
7969;SDS011;4030;52.362;9.206;2023-05-31T01:57:57;3.05;;;2.30;;
7969;SDS011;4030;52.362;9.206;2023-05-31T02:00:23;2.95;;;2.25;;
7969;SDS011;4030;52.362;9.206;2023-05-31T02:02:50;2.40;;;1.98;;
7969;SDS011;4030;52.362;9.206;2023-05-31T02:05:17;3.28;;;2.47;;
7969;SDS011;4030;52.362;9.206;2023-05-31T02:07:43;3.30;;;2.63;;
7969;SDS011;4030;52.362;9.206;2023-05-31T02:10:11;3.08;;;2.45;;
7969;SDS011;4030;52.362;9.206;2023-05-31T02:12:37;2.83;;;2.38;;
7969;SDS011;4030;52.362;9.206;2023-05-31T02:15:04;2.88;;;2.38;;
7969;SDS011;4030;52.362;9.206;2023-05-31T02:17:41;2.75;;;2.50;;
7969;SDS011;4030;52.362;9.206;2023-05-31T02:20:09;3.22;;;2.40;;
7969;SDS011;4030;52.362;9.206;2023-05-31T02:22:38;2.92;;;2.10;;
7969;SDS011;4030;52.362;9.206;2023-05-31T02:25:05;2.67;;;2.22;;
7969;SDS011;4030;52.362;9.206;2023-05-31T02:27:33;3.20;;;2.55;;
7969;SDS011;4030;52.362;9.206;2023-05-31T02:29:58;2.40;;;2.20;;
7969;SDS011;4030;52.362;9.206;2023-05-31T02:32:24;2.60;;;2.40;;
7969;SDS011;4030;52.362;9.206;2023-05-31T02:34:51;2.80;;;2.20;;
7969;SDS011;4030;52.362;9.206;2023-05-31T02:37:16;2.55;;;2.03;;
7969;SDS011;4030;52.362;9.206;2023-05-31T02:39:42;2.50;;;2.30;;
7969;SDS011;4030;52.362;9.206;2023-05-31T02:42:08;2.88;;;2.55;;
7969;SDS011;4030;52.362;9.206;2023-05-31T02:44:34;3.33;;;2.20;;
7969;SDS011;4030;52.362;9.206;2023-05-31T02:47:00;2.60;;;2.35;;
7969;SDS011;4030;52.362;9.206;2023-05-31T02:49:26;3.85;;;2.47;;
7969;SDS011;4030;52.362;9.206;2023-05-31T02:51:53;2.35;;;2.13;;
7969;SDS011;4030;52.362;9.206;2023-05-31T02:54:19;2.40;;;2.20;;
7969;SDS011;4030;52.362;9.206;2023-05-31T02:56:45;3.17;;;2.20;;
7969;SDS011;4030;52.362;9.206;2023-05-31T02:59:11;3.80;;;2.60;;
7969;SDS011;4030;52.362;9.206;2023-05-31T03:01:37;2.55;;;2.35;;
7969;SDS011;4030;52.362;9.206;2023-05-31T03:04:02;2.67;;;2.35;;
7969;SDS011;4030;52.362;9.206;2023-05-31T03:06:28;2.22;;;2.03;;
7969;SDS011;4030;52.362;9.206;2023-05-31T03:08:54;3.05;;;2.05;;
7969;SDS011;4030;52.362;9.206;2023-05-31T03:11:19;3.17;;;2.40;;
7969;SDS011;4030;52.362;9.206;2023-05-31T03:13:45;2.47;;;2.28;;
7969;SDS011;4030;52.362;9.206;2023-05-31T03:16:11;2.45;;;2.25;;
7969;SDS011;4030;52.362;9.206;2023-05-31T03:18:37;3.08;;;2.20;;
7969;SDS011;4030;52.362;9.206;2023-05-31T03:21:03;2.35;;;2.00;;
7969;SDS011;4030;52.362;9.206;2023-05-31T03:23:29;2.47;;;1.98;;
7969;SDS011;4030;52.362;9.206;2023-05-31T03:25:56;2.35;;;1.90;;
7969;SDS011;4030;52.362;9.206;2023-05-31T03:28:22;2.63;;;1.98;;
7969;SDS011;4030;52.362;9.206;2023-05-31T03:30:48;3.25;;;2.10;;
7969;SDS011;4030;52.362;9.206;2023-05-31T03:33:14;2.15;;;1.95;;
7969;SDS011;4030;52.362;9.206;2023-05-31T03:35:40;2.45;;;2.00;;
7969;SDS011;4030;52.362;9.206;2023-05-31T03:38:06;2.53;;;1.92;;
7969;SDS011;4030;52.362;9.206;2023-05-31T03:40:31;1.95;;;1.77;;
7969;SDS011;4030;52.362;9.206;2023-05-31T03:42:57;2.35;;;1.95;;
7969;SDS011;4030;52.362;9.206;2023-05-31T03:45:23;1.90;;;1.75;;
7969;SDS011;4030;52.362;9.206;2023-05-31T03:47:48;1.90;;;1.73;;
7969;SDS011;4030;52.362;9.206;2023-05-31T03:50:15;1.83;;;1.70;;
7969;SDS011;4030;52.362;9.206;2023-05-31T03:52:40;1.50;;;1.40;;
7969;SDS011;4030;52.362;9.206;2023-05-31T03:55:06;1.75;;;1.50;;
7969;SDS011;4030;52.362;9.206;2023-05-31T03:57:33;2.17;;;1.70;;
7969;SDS011;4030;52.362;9.206;2023-05-31T03:59:59;2.70;;;1.70;;
7969;SDS011;4030;52.362;9.206;2023-05-31T04:02:25;1.75;;;1.60;;
7969;SDS011;4030;52.362;9.206;2023-05-31T04:04:51;1.63;;;1.52;;
7969;SDS011;4030;52.362;9.206;2023-05-31T04:07:17;2.40;;;1.70;;
7969;SDS011;4030;52.362;9.206;2023-05-31T04:09:43;2.03;;;1.70;;
7969;SDS011;4030;52.362;9.206;2023-05-31T04:12:09;1.80;;;1.60;;
7969;SDS011;4030;52.362;9.206;2023-05-31T04:14:35;2.05;;;1.58;;
7969;SDS011;4030;52.362;9.206;2023-05-31T04:17:01;1.70;;;1.60;;
7969;SDS011;4030;52.362;9.206;2023-05-31T04:19:27;2.13;;;1.75;;
7969;SDS011;4030;52.362;9.206;2023-05-31T04:21:54;2.05;;;1.60;;
7969;SDS011;4030;52.362;9.206;2023-05-31T04:24:20;1.85;;;1.60;;
7969;SDS011;4030;52.362;9.206;2023-05-31T04:26:45;2.13;;;1.60;;
7969;SDS011;4030;52.362;9.206;2023-05-31T04:29:11;1.80;;;1.70;;
7969;SDS011;4030;52.362;9.206;2023-05-31T04:31:38;2.13;;;1.55;;
7969;SDS011;4030;52.362;9.206;2023-05-31T04:34:04;1.73;;;1.50;;
7969;SDS011;4030;52.362;9.206;2023-05-31T04:36:30;1.73;;;1.63;;
7969;SDS011;4030;52.362;9.206;2023-05-31T04:38:57;2.38;;;1.98;;
7969;SDS011;4030;52.362;9.206;2023-05-31T04:41:24;2.08;;;1.88;;
7969;SDS011;4030;52.362;9.206;2023-05-31T04:43:52;2.40;;;2.17;;
7969;SDS011;4030;52.362;9.206;2023-05-31T04:46:18;2.70;;;2.10;;
7969;SDS011;4030;52.362;9.206;2023-05-31T04:48:46;2.30;;;2.10;;
7969;SDS011;4030;52.362;9.206;2023-05-31T04:51:15;2.92;;;2.20;;
7969;SDS011;4030;52.362;9.206;2023-05-31T04:53:42;2.50;;;2.30;;
7969;SDS011;4030;52.362;9.206;2023-05-31T04:56:12;3.33;;;2.40;;
7969;SDS011;4030;52.362;9.206;2023-05-31T04:58:38;2.30;;;2.10;;
7969;SDS011;4030;52.362;9.206;2023-05-31T05:01:05;3.33;;;2.40;;
7969;SDS011;4030;52.362;9.206;2023-05-31T05:03:32;2.72;;;2.42;;
7969;SDS011;4030;52.362;9.206;2023-05-31T05:06:00;3.47;;;2.45;;
7969;SDS011;4030;52.362;9.206;2023-05-31T05:08:37;3.75;;;2.60;;
7969;SDS011;4030;52.362;9.206;2023-05-31T05:11:03;2.92;;;2.70;;
7969;SDS011;4030;52.362;9.206;2023-05-31T05:13:30;3.78;;;2.67;;
7969;SDS011;4030;52.362;9.206;2023-05-31T05:15:55;3.45;;;2.80;;
7969;SDS011;4030;52.362;9.206;2023-05-31T05:18:21;3.17;;;2.70;;
7969;SDS011;4030;52.362;9.206;2023-05-31T05:20:47;3.45;;;3.10;;
7969;SDS011;4030;52.362;9.206;2023-05-31T05:23:13;3.30;;;3.00;;
7969;SDS011;4030;52.362;9.206;2023-05-31T05:25:39;3.55;;;3.00;;
7969;SDS011;4030;52.362;9.206;2023-05-31T05:28:05;4.00;;;3.20;;
7969;SDS011;4030;52.362;9.206;2023-05-31T05:30:31;3.33;;;2.80;;
7969;SDS011;4030;52.362;9.206;2023-05-31T05:32:57;4.03;;;3.05;;
7969;SDS011;4030;52.362;9.206;2023-05-31T05:35:23;4.05;;;3.03;;
7969;SDS011;4030;52.362;9.206;2023-05-31T05:37:49;3.75;;;3.13;;
7969;SDS011;4030;52.362;9.206;2023-05-31T05:40:15;3.72;;;3.05;;
7969;SDS011;4030;52.362;9.206;2023-05-31T05:42:41;3.83;;;3.38;;
7969;SDS011;4030;52.362;9.206;2023-05-31T05:45:07;3.70;;;3.05;;
7969;SDS011;4030;52.362;9.206;2023-05-31T05:47:34;3.97;;;3.10;;
7969;SDS011;4030;52.362;9.206;2023-05-31T05:50:00;3.95;;;3.20;;
7969;SDS011;4030;52.362;9.206;2023-05-31T05:52:27;4.20;;;3.00;;
7969;SDS011;4030;52.362;9.206;2023-05-31T05:54:52;4.65;;;3.42;;
7969;SDS011;4030;52.362;9.206;2023-05-31T05:57:18;4.35;;;3.50;;
7969;SDS011;4030;52.362;9.206;2023-05-31T05:59:44;4.28;;;3.38;;
7969;SDS011;4030;52.362;9.206;2023-05-31T06:02:10;4.53;;;3.60;;
7969;SDS011;4030;52.362;9.206;2023-05-31T06:04:36;4.07;;;3.40;;
7969;SDS011;4030;52.362;9.206;2023-05-31T06:07:02;4.07;;;3.67;;
7969;SDS011;4030;52.362;9.206;2023-05-31T06:09:28;4.78;;;3.55;;
7969;SDS011;4030;52.362;9.206;2023-05-31T06:11:54;4.32;;;3.45;;
7969;SDS011;4030;52.362;9.206;2023-05-31T06:14:20;4.63;;;3.05;;
7969;SDS011;4030;52.362;9.206;2023-05-31T06:16:45;4.97;;;3.50;;
7969;SDS011;4030;52.362;9.206;2023-05-31T06:19:11;3.60;;;3.15;;
7969;SDS011;4030;52.362;9.206;2023-05-31T06:21:37;5.18;;;3.35;;
7969;SDS011;4030;52.362;9.206;2023-05-31T06:24:02;4.88;;;3.30;;
7969;SDS011;4030;52.362;9.206;2023-05-31T06:26:29;4.93;;;3.45;;
7969;SDS011;4030;52.362;9.206;2023-05-31T06:28:55;3.65;;;3.20;;
7969;SDS011;4030;52.362;9.206;2023-05-31T06:31:25;4.03;;;3.15;;
7969;SDS011;4030;52.362;9.206;2023-05-31T06:33:52;5.20;;;3.25;;
7969;SDS011;4030;52.362;9.206;2023-05-31T06:36:17;5.22;;;3.47;;
7969;SDS011;4030;52.362;9.206;2023-05-31T06:38:43;3.67;;;3.30;;
7969;SDS011;4030;52.362;9.206;2023-05-31T06:41:11;4.03;;;3.38;;
7969;SDS011;4030;52.362;9.206;2023-05-31T06:43:37;4.32;;;3.30;;
7969;SDS011;4030;52.362;9.206;2023-05-31T06:46:03;4.63;;;3.13;;
7969;SDS011;4030;52.362;9.206;2023-05-31T06:48:32;4.03;;;3.20;;
7969;SDS011;4030;52.362;9.206;2023-05-31T06:50:58;3.90;;;3.45;;
7969;SDS011;4030;52.362;9.206;2023-05-31T06:53:23;4.60;;;3.63;;
7969;SDS011;4030;52.362;9.206;2023-05-31T06:55:49;4.35;;;3.10;;
7969;SDS011;4030;52.362;9.206;2023-05-31T06:58:16;4.72;;;3.30;;
7969;SDS011;4030;52.362;9.206;2023-05-31T07:00:42;6.32;;;3.53;;
7969;SDS011;4030;52.362;9.206;2023-05-31T07:03:07;4.82;;;3.20;;
7969;SDS011;4030;52.362;9.206;2023-05-31T07:05:33;6.75;;;3.58;;
7969;SDS011;4030;52.362;9.206;2023-05-31T07:07:59;6.13;;;3.78;;
7969;SDS011;4030;52.362;9.206;2023-05-31T07:10:28;6.25;;;3.63;;
7969;SDS011;4030;52.362;9.206;2023-05-31T07:12:54;6.00;;;3.80;;
7969;SDS011;4030;52.362;9.206;2023-05-31T07:15:19;5.95;;;3.95;;
7969;SDS011;4030;52.362;9.206;2023-05-31T07:17:45;7.82;;;4.35;;
7969;SDS011;4030;52.362;9.206;2023-05-31T07:20:11;10.15;;;4.97;;
7969;SDS011;4030;52.362;9.206;2023-05-31T07:22:36;12.55;;;5.03;;
7969;SDS011;4030;52.362;9.206;2023-05-31T07:25:02;8.57;;;4.10;;
7969;SDS011;4030;52.362;9.206;2023-05-31T07:27:30;10.23;;;4.95;;
7969;SDS011;4030;52.362;9.206;2023-05-31T07:29:56;8.05;;;4.88;;
7969;SDS011;4030;52.362;9.206;2023-05-31T07:32:22;9.90;;;4.97;;
7969;SDS011;4030;52.362;9.206;2023-05-31T07:34:47;7.22;;;4.25;;
7969;SDS011;4030;52.362;9.206;2023-05-31T07:37:13;7.95;;;4.00;;
7969;SDS011;4030;52.362;9.206;2023-05-31T07:39:39;6.90;;;3.53;;
7969;SDS011;4030;52.362;9.206;2023-05-31T07:42:05;4.45;;;2.83;;
7969;SDS011;4030;52.362;9.206;2023-05-31T07:44:31;4.18;;;3.15;;
7969;SDS011;4030;52.362;9.206;2023-05-31T07:46:56;5.72;;;3.10;;
7969;SDS011;4030;52.362;9.206;2023-05-31T07:49:22;5.30;;;3.15;;
7969;SDS011;4030;52.362;9.206;2023-05-31T07:51:48;4.10;;;2.83;;
7969;SDS011;4030;52.362;9.206;2023-05-31T07:54:13;4.43;;;2.85;;
7969;SDS011;4030;52.362;9.206;2023-05-31T07:56:39;4.00;;;2.83;;
7969;SDS011;4030;52.362;9.206;2023-05-31T07:59:05;3.90;;;2.55;;
7969;SDS011;4030;52.362;9.206;2023-05-31T08:01:31;3.55;;;2.67;;
7969;SDS011;4030;52.362;9.206;2023-05-31T08:04:05;3.70;;;2.60;;
7969;SDS011;4030;52.362;9.206;2023-05-31T08:06:32;3.97;;;2.72;;
7969;SDS011;4030;52.362;9.206;2023-05-31T08:08:58;6.20;;;2.58;;
7969;SDS011;4030;52.362;9.206;2023-05-31T08:11:25;3.80;;;2.50;;
7969;SDS011;4030;52.362;9.206;2023-05-31T08:13:51;3.22;;;2.50;;
7969;SDS011;4030;52.362;9.206;2023-05-31T08:16:17;3.47;;;2.58;;
7969;SDS011;4030;52.362;9.206;2023-05-31T08:18:44;3.65;;;2.50;;
7969;SDS011;4030;52.362;9.206;2023-05-31T08:21:10;4.60;;;2.50;;
7969;SDS011;4030;52.362;9.206;2023-05-31T08:23:36;2.80;;;2.35;;
7969;SDS011;4030;52.362;9.206;2023-05-31T08:26:01;3.38;;;2.47;;
7969;SDS011;4030;52.362;9.206;2023-05-31T08:28:27;3.00;;;2.38;;
7969;SDS011;4030;52.362;9.206;2023-05-31T08:30:55;4.05;;;2.47;;
7969;SDS011;4030;52.362;9.206;2023-05-31T08:33:20;5.50;;;2.53;;
7969;SDS011;4030;52.362;9.206;2023-05-31T08:35:46;3.45;;;2.20;;
7969;SDS011;4030;52.362;9.206;2023-05-31T08:38:12;4.03;;;2.47;;
7969;SDS011;4030;52.362;9.206;2023-05-31T08:40:38;4.10;;;2.58;;
7969;SDS011;4030;52.362;9.206;2023-05-31T08:43:06;5.63;;;2.90;;
7969;SDS011;4030;52.362;9.206;2023-05-31T08:45:40;3.17;;;2.35;;
7969;SDS011;4030;52.362;9.206;2023-05-31T08:48:13;4.80;;;2.70;;
7969;SDS011;4030;52.362;9.206;2023-05-31T08:50:58;3.97;;;2.40;;
7969;SDS011;4030;52.362;9.206;2023-05-31T08:53:27;5.40;;;2.35;;
7969;SDS011;4030;52.362;9.206;2023-05-31T08:55:54;4.50;;;1.90;;
7969;SDS011;4030;52.362;9.206;2023-05-31T08:58:20;5.70;;;2.28;;
7969;SDS011;4030;52.362;9.206;2023-05-31T09:00:48;6.22;;;2.50;;
7969;SDS011;4030;52.362;9.206;2023-05-31T09:03:14;7.45;;;2.58;;
7969;SDS011;4030;52.362;9.206;2023-05-31T09:05:41;8.55;;;2.40;;
7969;SDS011;4030;52.362;9.206;2023-05-31T09:08:07;11.40;;;2.75;;
7969;SDS011;4030;52.362;9.206;2023-05-31T09:10:33;9.68;;;2.80;;
7969;SDS011;4030;52.362;9.206;2023-05-31T09:12:59;13.45;;;2.88;;
7969;SDS011;4030;52.362;9.206;2023-05-31T09:15:25;10.98;;;2.78;;
7969;SDS011;4030;52.362;9.206;2023-05-31T09:17:52;10.68;;;2.88;;
7969;SDS011;4030;52.362;9.206;2023-05-31T09:20:18;11.93;;;3.17;;
7969;SDS011;4030;52.362;9.206;2023-05-31T09:22:47;15.07;;;3.08;;
7969;SDS011;4030;52.362;9.206;2023-05-31T09:25:14;12.85;;;3.15;;
7969;SDS011;4030;52.362;9.206;2023-05-31T09:27:40;13.00;;;2.92;;
7969;SDS011;4030;52.362;9.206;2023-05-31T09:30:10;12.25;;;2.80;;
7969;SDS011;4030;52.362;9.206;2023-05-31T09:32:38;10.77;;;2.85;;
7969;SDS011;4030;52.362;9.206;2023-05-31T09:35:11;13.80;;;2.80;;
7969;SDS011;4030;52.362;9.206;2023-05-31T09:37:43;11.93;;;2.63;;
7969;SDS011;4030;52.362;9.206;2023-05-31T09:40:09;9.88;;;2.47;;
7969;SDS011;4030;52.362;9.206;2023-05-31T09:42:37;9.50;;;2.55;;
7969;SDS011;4030;52.362;9.206;2023-05-31T09:45:03;11.20;;;2.80;;
7969;SDS011;4030;52.362;9.206;2023-05-31T09:47:30;9.57;;;2.58;;
7969;SDS011;4030;52.362;9.206;2023-05-31T09:49:56;9.90;;;2.55;;
7969;SDS011;4030;52.362;9.206;2023-05-31T09:52:25;9.98;;;2.85;;
7969;SDS011;4030;52.362;9.206;2023-05-31T09:54:54;8.98;;;2.47;;
7969;SDS011;4030;52.362;9.206;2023-05-31T09:57:28;8.75;;;2.47;;
7969;SDS011;4030;52.362;9.206;2023-05-31T09:59:56;8.13;;;2.55;;
7969;SDS011;4030;52.362;9.206;2023-05-31T10:02:24;8.35;;;2.30;;
7969;SDS011;4030;52.362;9.206;2023-05-31T10:04:55;7.60;;;2.33;;
7969;SDS011;4030;52.362;9.206;2023-05-31T10:07:23;5.60;;;2.00;;
7969;SDS011;4030;52.362;9.206;2023-05-31T10:09:50;7.45;;;2.40;;
7969;SDS011;4030;52.362;9.206;2023-05-31T10:12:17;4.45;;;2.17;;
7969;SDS011;4030;52.362;9.206;2023-05-31T10:14:48;5.82;;;2.10;;
7969;SDS011;4030;52.362;9.206;2023-05-31T10:17:23;7.80;;;2.42;;
7969;SDS011;4030;52.362;9.206;2023-05-31T10:19:54;7.90;;;2.20;;
7969;SDS011;4030;52.362;9.206;2023-05-31T10:22:26;6.93;;;2.20;;
7969;SDS011;4030;52.362;9.206;2023-05-31T10:25:01;7.85;;;2.30;;
7969;SDS011;4030;52.362;9.206;2023-05-31T10:27:41;4.35;;;2.30;;
7969;SDS011;4030;52.362;9.206;2023-05-31T10:30:10;4.68;;;2.03;;
7969;SDS011;4030;52.362;9.206;2023-05-31T10:32:42;6.25;;;2.10;;
7969;SDS011;4030;52.362;9.206;2023-05-31T10:35:28;5.03;;;1.90;;
7969;SDS011;4030;52.362;9.206;2023-05-31T10:37:54;5.72;;;2.13;;
7969;SDS011;4030;52.362;9.206;2023-05-31T10:40:27;7.05;;;2.35;;
7969;SDS011;4030;52.362;9.206;2023-05-31T10:43:09;5.30;;;2.05;;
7969;SDS011;4030;52.362;9.206;2023-05-31T10:45:54;5.15;;;2.10;;
7969;SDS011;4030;52.362;9.206;2023-05-31T10:51:26;6.45;;;2.10;;
7969;SDS011;4030;52.362;9.206;2023-05-31T10:54:09;5.40;;;2.20;;
7969;SDS011;4030;52.362;9.206;2023-05-31T10:57:04;7.63;;;2.47;;
7969;SDS011;4030;52.362;9.206;2023-05-31T10:59:38;5.03;;;2.10;;
7969;SDS011;4030;52.362;9.206;2023-05-31T11:02:07;7.20;;;2.00;;
7969;SDS011;4030;52.362;9.206;2023-05-31T11:04:34;7.03;;;1.95;;
7969;SDS011;4030;52.362;9.206;2023-05-31T11:07:19;5.25;;;2.05;;
7969;SDS011;4030;52.362;9.206;2023-05-31T11:09:56;7.03;;;2.30;;
7969;SDS011;4030;52.362;9.206;2023-05-31T11:12:42;4.20;;;1.98;;
7969;SDS011;4030;52.362;9.206;2023-05-31T11:15:13;4.05;;;1.88;;
7969;SDS011;4030;52.362;9.206;2023-05-31T11:17:40;4.07;;;1.90;;
7969;SDS011;4030;52.362;9.206;2023-05-31T11:20:16;4.97;;;2.10;;
7969;SDS011;4030;52.362;9.206;2023-05-31T11:22:43;5.75;;;2.13;;
7969;SDS011;4030;52.362;9.206;2023-05-31T11:25:08;7.35;;;1.83;;
7969;SDS011;4030;52.362;9.206;2023-05-31T11:27:46;3.90;;;1.70;;
7969;SDS011;4030;52.362;9.206;2023-05-31T11:30:14;4.10;;;1.90;;
7969;SDS011;4030;52.362;9.206;2023-05-31T11:37:40;4.78;;;1.88;;
7969;SDS011;4030;52.362;9.206;2023-05-31T11:40:08;3.67;;;1.83;;
7969;SDS011;4030;52.362;9.206;2023-05-31T11:42:40;3.17;;;1.75;;
7969;SDS011;4030;52.362;9.206;2023-05-31T11:45:11;5.68;;;2.20;;
7969;SDS011;4030;52.362;9.206;2023-05-31T11:50:49;3.47;;;1.70;;
7969;SDS011;4030;52.362;9.206;2023-05-31T11:53:15;6.57;;;1.85;;
7969;SDS011;4030;52.362;9.206;2023-05-31T11:55:44;4.35;;;1.73;;
7969;SDS011;4030;52.362;9.206;2023-05-31T11:58:13;3.25;;;1.80;;
7969;SDS011;4030;52.362;9.206;2023-05-31T12:00:44;4.50;;;2.00;;
7969;SDS011;4030;52.362;9.206;2023-05-31T12:03:13;3.67;;;1.90;;
7969;SDS011;4030;52.362;9.206;2023-05-31T12:05:41;4.82;;;1.75;;
7969;SDS011;4030;52.362;9.206;2023-05-31T12:08:10;3.05;;;1.73;;
7969;SDS011;4030;52.362;9.206;2023-05-31T12:10:38;4.03;;;1.92;;
7969;SDS011;4030;52.362;9.206;2023-05-31T12:13:04;3.33;;;1.67;;
7969;SDS011;4030;52.362;9.206;2023-05-31T12:15:30;2.88;;;1.60;;
7969;SDS011;4030;52.362;9.206;2023-05-31T12:17:59;3.25;;;1.80;;
7969;SDS011;4030;52.362;9.206;2023-05-31T12:20:29;1.92;;;1.42;;
7969;SDS011;4030;52.362;9.206;2023-05-31T12:23:14;3.30;;;1.77;;
7969;SDS011;4030;52.362;9.206;2023-05-31T12:25:50;6.07;;;1.70;;
7969;SDS011;4030;52.362;9.206;2023-05-31T12:28:16;2.95;;;1.55;;
7969;SDS011;4030;52.362;9.206;2023-05-31T12:30:44;2.55;;;1.50;;
7969;SDS011;4030;52.362;9.206;2023-05-31T12:33:11;2.65;;;1.63;;
7969;SDS011;4030;52.362;9.206;2023-05-31T12:35:41;3.15;;;1.63;;
7969;SDS011;4030;52.362;9.206;2023-05-31T12:38:08;3.50;;;1.58;;
7969;SDS011;4030;52.362;9.206;2023-05-31T12:40:37;3.65;;;1.80;;
7969;SDS011;4030;52.362;9.206;2023-05-31T12:43:04;4.47;;;2.20;;
7969;SDS011;4030;52.362;9.206;2023-05-31T12:45:31;6.57;;;2.20;;
7969;SDS011;4030;52.362;9.206;2023-05-31T12:47:57;4.68;;;1.70;;
7969;SDS011;4030;52.362;9.206;2023-05-31T12:50:23;5.63;;;2.00;;
7969;SDS011;4030;52.362;9.206;2023-05-31T12:52:56;4.90;;;2.13;;
7969;SDS011;4030;52.362;9.206;2023-05-31T12:55:22;3.92;;;2.10;;
7969;SDS011;4030;52.362;9.206;2023-05-31T12:57:48;4.13;;;1.80;;
7969;SDS011;4030;52.362;9.206;2023-05-31T13:00:14;4.90;;;1.98;;
7969;SDS011;4030;52.362;9.206;2023-05-31T13:02:41;4.55;;;1.80;;
7969;SDS011;4030;52.362;9.206;2023-05-31T13:05:07;5.93;;;2.03;;
7969;SDS011;4030;52.362;9.206;2023-05-31T13:07:33;3.53;;;1.98;;
7969;SDS011;4030;52.362;9.206;2023-05-31T13:10:00;3.85;;;1.88;;
7969;SDS011;4030;52.362;9.206;2023-05-31T13:12:27;4.80;;;1.85;;
7969;SDS011;4030;52.362;9.206;2023-05-31T13:14:53;6.32;;;2.10;;
7969;SDS011;4030;52.362;9.206;2023-05-31T13:17:19;5.07;;;2.00;;
7969;SDS011;4030;52.362;9.206;2023-05-31T13:19:44;5.03;;;2.20;;
7969;SDS011;4030;52.362;9.206;2023-05-31T13:22:11;4.97;;;2.28;;
7969;SDS011;4030;52.362;9.206;2023-05-31T13:24:37;4.70;;;1.85;;
7969;SDS011;4030;52.362;9.206;2023-05-31T13:27:03;3.17;;;1.73;;
7969;SDS011;4030;52.362;9.206;2023-05-31T13:29:30;4.53;;;1.88;;
7969;SDS011;4030;52.362;9.206;2023-05-31T13:31:56;4.75;;;1.83;;
7969;SDS011;4030;52.362;9.206;2023-05-31T13:34:23;4.95;;;2.10;;
7969;SDS011;4030;52.362;9.206;2023-05-31T13:36:48;3.72;;;1.98;;
7969;SDS011;4030;52.362;9.206;2023-05-31T13:39:14;2.63;;;1.70;;
7969;SDS011;4030;52.362;9.206;2023-05-31T13:41:43;4.50;;;1.80;;
7969;SDS011;4030;52.362;9.206;2023-05-31T13:44:10;3.65;;;2.00;;
7969;SDS011;4030;52.362;9.206;2023-05-31T13:46:38;3.45;;;1.88;;
7969;SDS011;4030;52.362;9.206;2023-05-31T13:49:04;3.05;;;1.50;;
7969;SDS011;4030;52.362;9.206;2023-05-31T13:51:30;2.88;;;1.83;;
7969;SDS011;4030;52.362;9.206;2023-05-31T13:53:55;2.72;;;1.60;;
7969;SDS011;4030;52.362;9.206;2023-05-31T13:56:21;3.40;;;1.75;;
7969;SDS011;4030;52.362;9.206;2023-05-31T13:58:47;4.35;;;1.83;;
7969;SDS011;4030;52.362;9.206;2023-05-31T14:01:13;3.05;;;1.70;;
7969;SDS011;4030;52.362;9.206;2023-05-31T14:03:38;3.55;;;1.70;;
7969;SDS011;4030;52.362;9.206;2023-05-31T14:06:05;2.97;;;1.50;;
7969;SDS011;4030;52.362;9.206;2023-05-31T14:08:31;4.15;;;1.77;;
7969;SDS011;4030;52.362;9.206;2023-05-31T14:10:57;4.85;;;2.00;;
7969;SDS011;4030;52.362;9.206;2023-05-31T14:13:23;2.88;;;1.48;;
7969;SDS011;4030;52.362;9.206;2023-05-31T14:15:49;2.88;;;1.65;;
7969;SDS011;4030;52.362;9.206;2023-05-31T14:18:16;3.15;;;1.42;;
7969;SDS011;4030;52.362;9.206;2023-05-31T14:20:42;2.60;;;1.48;;
7969;SDS011;4030;52.362;9.206;2023-05-31T14:23:07;3.90;;;1.90;;
7969;SDS011;4030;52.362;9.206;2023-05-31T14:25:33;5.22;;;2.00;;
7969;SDS011;4030;52.362;9.206;2023-05-31T14:27:59;2.80;;;1.27;;
7969;SDS011;4030;52.362;9.206;2023-05-31T14:30:25;1.95;;;1.60;;
7969;SDS011;4030;52.362;9.206;2023-05-31T14:32:54;3.45;;;1.58;;
7969;SDS011;4030;52.362;9.206;2023-05-31T14:35:19;3.40;;;1.48;;
7969;SDS011;4030;52.362;9.206;2023-05-31T14:37:46;4.32;;;1.50;;
7969;SDS011;4030;52.362;9.206;2023-05-31T14:40:12;4.15;;;1.50;;
7969;SDS011;4030;52.362;9.206;2023-05-31T14:42:38;2.75;;;1.60;;
7969;SDS011;4030;52.362;9.206;2023-05-31T14:45:04;2.42;;;1.60;;
7969;SDS011;4030;52.362;9.206;2023-05-31T14:47:30;5.32;;;1.67;;
7969;SDS011;4030;52.362;9.206;2023-05-31T14:49:56;4.88;;;1.63;;
7969;SDS011;4030;52.362;9.206;2023-05-31T14:52:22;5.32;;;1.70;;
7969;SDS011;4030;52.362;9.206;2023-05-31T14:54:48;7.72;;;1.90;;
7969;SDS011;4030;52.362;9.206;2023-05-31T14:57:13;4.50;;;1.70;;
7969;SDS011;4030;52.362;9.206;2023-05-31T14:59:39;7.05;;;1.70;;
7969;SDS011;4030;52.362;9.206;2023-05-31T15:02:05;2.85;;;1.60;;
7969;SDS011;4030;52.362;9.206;2023-05-31T15:04:32;4.97;;;1.60;;
7969;SDS011;4030;52.362;9.206;2023-05-31T15:06:58;5.50;;;1.58;;
7969;SDS011;4030;52.362;9.206;2023-05-31T15:09:24;3.88;;;1.60;;
7969;SDS011;4030;52.362;9.206;2023-05-31T15:11:49;4.35;;;1.73;;
7969;SDS011;4030;52.362;9.206;2023-05-31T15:14:15;2.65;;;1.55;;
7969;SDS011;4030;52.362;9.206;2023-05-31T15:16:41;4.32;;;1.50;;
7969;SDS011;4030;52.362;9.206;2023-05-31T15:19:07;2.45;;;1.67;;
7969;SDS011;4030;52.362;9.206;2023-05-31T15:21:33;6.55;;;1.70;;
7969;SDS011;4030;52.362;9.206;2023-05-31T15:23:59;4.03;;;1.60;;
7969;SDS011;4030;52.362;9.206;2023-05-31T15:26:24;4.07;;;1.52;;
7969;SDS011;4030;52.362;9.206;2023-05-31T15:28:51;2.65;;;1.40;;
7969;SDS011;4030;52.362;9.206;2023-05-31T15:31:17;4.88;;;1.58;;
7969;SDS011;4030;52.362;9.206;2023-05-31T15:33:42;2.85;;;1.55;;